Time;durP1;ratioP1;P1;durP2;ratioP2;P2;SDS_P1;SDS_P2;PMS_P1;PMS_P2;Temp;Humidity;BMP_temperature;BMP_pressure;BME280_temperature;BME280_humidity;BME280_pressure;Samples;Min_cycle;Max_cycle;Signal;HPM_P1;HPM_P2
2022/11/05 00:10:49;;;;;;;19.52;8.10;;;;;;;12.00;73.71;100810.59;1750301;79;26573;-62
2022/11/05 00:19:05;;;;;;;17.05;8.65;;;;;;;12.04;73.24;100817.42;1737362;81;25748;-62
2022/11/05 00:26:46;;;;;;;18.48;9.43;;;;;;;12.10;72.88;100817.34;1779313;79;27472;-62
2022/11/05 00:29:14;;;;;;;12.90;8.10;;;;;;;12.09;73.10;100826.42;1784075;79;25897;-62
2022/11/05 00:31:40;;;;;;;18.70;8.80;;;;;;;12.07;72.78;100820.31;1807048;79;25762;-62
2022/11/05 00:34:07;;;;;;;17.95;9.13;;;;;;;12.05;73.11;100824.00;1750130;79;25886;-62
2022/11/05 00:36:33;;;;;;;19.55;8.85;;;;;;;12.03;73.09;100821.94;1749336;79;26094;-62
2022/11/05 00:39:00;;;;;;;14.75;8.28;;;;;;;12.01;73.12;100817.70;1745578;80;27597;-62
2022/11/05 00:41:27;;;;;;;16.12;9.00;;;;;;;12.00;72.91;100820.03;1744787;80;25858;-62
2022/11/05 00:46:39;;;;;;;20.35;9.63;;;;;;;11.95;72.98;100816.39;1794050;79;26401;-62
2022/11/05 00:52:54;;;;;;;12.80;8.23;;;;;;;11.90;73.36;100814.13;1743523;81;29652;-62
2022/11/05 00:54:19;;;;;;;21.80;8.18;;;;;;;11.94;73.41;100815.20;1760694;79;27254;-62
2022/11/05 00:56:46;;;;;;;18.75;9.73;;;;;;;11.94;73.22;100809.30;1713764;82;25812;-62
2022/11/05 00:59:13;;;;;;;14.85;7.97;;;;;;;11.97;73.84;100813.09;1756990;79;26461;-62
2022/11/05 01:01:40;;;;;;;18.80;8.78;;;;;;;11.96;73.77;100810.01;1745488;80;25743;-62
2022/11/05 01:04:07;;;;;;;15.90;7.67;;;;;;;11.95;73.71;100801.56;1777167;79;28165;-62
2022/11/05 01:06:34;;;;;;;17.75;8.65;;;;;;;11.96;73.97;100807.83;1744903;79;25783;-62
2022/11/05 01:09:00;;;;;;;15.70;7.85;;;;;;;11.95;74.00;100804.26;1746200;79;25671;-62
2022/11/05 01:11:33;;;;;;;15.58;7.83;;;;;;;11.97;73.87;100800.09;1745144;79;26457;-62
2022/11/05 01:14:04;;;;;;;19.02;7.67;;;;;;;11.99;74.13;100794.94;1747638;79;25786;-62
2022/11/05 01:16:31;;;;;;;11.80;7.05;;;;;;;12.04;74.01;100803.94;1762934;79;27543;-62
2022/11/05 01:18:59;;;;;;;14.40;7.85;;;;;;;12.08;73.63;100803.14;1768584;80;26251;-62
2022/11/05 01:21:26;;;;;;;16.25;8.03;;;;;;;12.09;73.78;100802.16;1743068;80;25816;-62
2022/11/05 01:23:54;;;;;;;15.58;7.70;;;;;;;12.12;73.93;100802.71;1744746;79;25868;-62
2022/11/05 01:26:21;;;;;;;23.40;8.53;;;;;;;12.12;73.86;100800.49;1763347;79;25678;-62
2022/11/05 01:28:53;;;;;;;16.85;7.90;;;;;;;12.15;73.69;100805.09;1764639;79;27314;-62
2022/11/05 01:31:20;;;;;;;12.65;7.62;;;;;;;12.17;73.68;100804.45;1741944;79;25737;-62
2022/11/05 01:33:47;;;;;;;17.85;8.20;;;;;;;12.21;73.42;100803.66;1765558;79;25688;-62
2022/11/05 01:36:14;;;;;;;14.40;8.08;;;;;;;12.24;73.42;100796.64;1771048;79;25648;-62
2022/11/05 01:38:41;;;;;;;13.72;7.42;;;;;;;12.26;73.37;100793.78;1744247;82;25870;-62
2022/11/05 01:41:08;;;;;;;15.40;8.18;;;;;;;12.27;73.42;100794.14;1745523;79;27473;-62
2022/11/05 01:43:55;;;;;;;17.10;8.28;;;;;;;12.23;73.37;100802.19;1745081;82;25505;-62
2022/11/05 01:46:39;;;;;;;16.60;8.78;;;;;;;12.25;73.37;100802.87;1756410;79;25900;-62
2022/11/05 01:49:26;;;;;;;16.87;8.58;;;;;;;12.24;73.24;100806.08;1711033;81;25768;-62
2022/11/05 01:51:54;;;;;;;16.12;8.35;;;;;;;12.23;73.10;100811.62;1745629;81;25612;-61
2022/11/05 01:54:26;;;;;;;15.70;9.00;;;;;;;12.18;73.07;100808.86;1766405;79;27173;-61
2022/11/05 01:57:00;;;;;;;19.70;9.68;;;;;;;12.14;73.32;100807.47;1746885;79;25901;-61
2022/11/05 01:59:31;;;;;;;16.97;9.25;;;;;;;12.12;73.11;100801.36;1761092;79;25634;-62
2022/11/05 02:02:01;;;;;;;16.17;9.00;;;;;;;12.11;72.90;100814.97;1789694;79;25743;-62
2022/11/05 02:04:36;;;;;;;19.90;9.18;;;;;;;12.09;73.01;100807.03;1763110;80;26022;-62
2022/11/05 02:07:05;;;;;;;23.10;9.13;;;;;;;12.08;73.09;100804.49;1762862;79;27634;-62
2022/11/05 02:09:55;;;;;;;13.70;8.88;;;;;;;12.04;73.00;100804.77;1721321;82;25751;-62
2022/11/05 02:12:22;;;;;;;14.13;7.72;;;;;;;12.01;73.56;100810.45;1691090;83;25870;-62
2022/11/05 02:14:49;;;;;;;17.60;8.50;;;;;;;12.04;73.71;100806.63;1746199;80;25807;-62
2022/11/05 02:17:56;;;;;;;19.70;8.93;;;;;;;12.04;74.03;100814.20;1744932;82;25801;-62
2022/11/05 02:20:40;;;;;;;20.37;9.00;;;;;;;12.08;74.43;100809.89;1745504;79;27584;-62
2022/11/05 02:23:24;;;;;;;16.45;7.50;;;;;;;12.06;74.29;100815.41;1744999;82;25793;-62
2022/11/05 02:25:56;;;;;;;15.40;7.97;;;;;;;12.07;74.07;100817.11;1748561;80;32573;-62
2022/11/05 02:28:43;;;;;;;16.20;8.43;;;;;;;12.08;74.04;100817.97;1745381;82;25803;-61
2022/11/05 02:31:27;;;;;;;18.42;8.30;;;;;;;12.08;74.01;100820.16;1746335;79;25895;-62
2022/11/05 02:34:26;;;;;;;19.12;8.38;;;;;;;12.10;73.97;100814.13;1738829;80;27597;-61
2022/11/05 02:37:07;;;;;;;19.32;8.73;;;;;;;12.11;74.18;100819.02;1762860;80;25669;-61
2022/11/05 02:39:48;;;;;;;15.48;8.88;;;;;;;12.14;73.94;100818.73;1744331;79;25736;-62
2022/11/05 02:42:41;;;;;;;19.50;8.30;;;;;;;12.17;73.90;100823.84;1743367;79;26547;-61
2022/11/05 02:45:26;;;;;;;17.87;9.30;;;;;;;12.21;73.72;100821.20;1733511;79;25919;-62
2022/11/05 02:47:58;;;;;;;;;;;;;;;12.21;73.80;100830.63;1740891;82;27474;-62
2022/11/05 02:50:40;;;;;;;12.80;8.20;;;;;;;12.24;73.83;100825.47;1773200;79;25788;-61
2022/11/05 02:53:21;;;;;;;17.12;8.15;;;;;;;12.24;73.74;100824.96;1748315;79;25470;-60
2022/11/05 02:56:18;;;;;;;28.25;8.60;;;;;;;12.24;73.70;100826.31;1737820;82;25842;-61
2022/11/05 02:58:44;;;;;;;18.95;8.20;;;;;;;12.27;73.69;100823.81;1768621;80;26450;-61
2022/11/05 03:01:12;;;;;;;19.32;8.43;;;;;;;12.26;73.64;100826.15;1756022;80;28548;-62
2022/11/05 03:03:56;;;;;;;20.50;9.65;;;;;;;12.27;73.71;100830.55;1752280;81;25746;-61
2022/11/05 03:06:45;;;;;;;13.90;8.43;;;;;;;12.26;73.60;100824.80;1753762;81;28700;-61
2022/11/05 03:09:37;;;;;;;14.90;7.90;;;;;;;12.23;73.81;100827.30;1752116;80;25806;-61
2022/11/05 03:12:30;;;;;;;19.10;8.63;;;;;;;12.23;74.12;100831.86;1713860;83;27411;-61
2022/11/05 03:15:08;;;;;;;18.55;9.13;;;;;;;12.24;73.99;100829.00;1742261;81;27639;-61
2022/11/05 03:18:12;;;;;;;19.23;9.53;;;;;;;12.25;73.79;100827.14;1750633;81;25812;-61
2022/11/05 03:21:00;;;;;;;22.32;9.88;;;;;;;12.21;73.93;100823.41;1751786;81;25823;-61
2022/11/05 03:23:48;;;;;;;20.43;10.05;;;;;;;12.18;74.01;100832.30;1742366;81;25814;-61
2022/11/05 03:26:21;;;;;;;17.77;10.05;;;;;;;12.14;74.15;100832.22;1767639;80;25686;-61
2022/11/05 03:28:53;;;;;;;21.60;9.23;;;;;;;12.10;74.07;100822.73;1760911;80;27456;-61
2022/11/05 03:31:22;;;;;;;20.43;9.75;;;;;;;12.08;74.06;100830.11;1751043;81;25503;-61
2022/11/05 03:33:52;;;;;;;19.00;9.68;;;;;;;12.10;73.98;100830.83;1751991;81;25732;-61
2022/11/05 03:36:40;;;;;;;18.75;10.35;;;;;;;12.09;74.18;100834.00;1708833;83;25925;-61
2022/11/05 03:39:11;;;;;;;20.32;9.60;;;;;;;12.10;74.20;100830.83;1752481;81;25736;-61
2022/11/05 03:41:42;;;;;;;24.87;9.58;;;;;;;12.09;74.34;100829.95;1752040;80;27690;-61
2022/11/05 03:44:12;;;;;;;19.95;9.60;;;;;;;12.10;74.63;100833.01;1751712;81;25729;-61
2022/11/05 03:46:48;;;;;;;21.70;9.50;;;;;;;12.10;74.56;100827.61;1752153;81;25542;-61
2022/11/05 03:49:22;;;;;;;19.65;9.73;;;;;;;12.12;74.65;100823.41;1752024;80;25766;-61
2022/11/05 03:52:06;;;;;;;19.00;9.03;;;;;;;12.14;74.65;100824.99;1713834;82;25691;-61
2022/11/05 03:54:34;;;;;;;21.35;10.08;;;;;;;12.17;74.47;100823.84;1693988;84;28465;-61
2022/11/05 03:57:06;;;;;;;21.80;9.55;;;;;;;12.17;74.61;100825.20;1750664;81;25538;-61
2022/11/05 03:59:44;;;;;;;14.87;9.15;;;;;;;12.18;74.65;100834.99;1746588;82;25768;-62
2022/11/05 04:02:13;;;;;;;23.05;10.28;;;;;;;12.20;74.49;100831.14;1746378;82;25831;-61
2022/11/05 04:04:41;;;;;;;22.45;9.00;;;;;;;12.25;74.40;100840.63;1761828;80;25707;-61
2022/11/05 04:15:28;;;;;;;17.20;9.25;;;;;;;12.34;74.12;100846.02;1746489;82;25979;-61
2022/11/05 04:17:57;;;;;;;20.55;9.28;;;;;;;12.36;74.07;100849.91;1746699;82;25514;-62
2022/11/05 04:26:01;;;;;;;17.65;8.60;;;;;;;12.47;73.62;100852.92;1746430;82;25783;-62
2022/11/05 04:30:17;;;;;;;22.73;9.05;;;;;;;12.46;73.57;100853.95;1746173;82;25906;-62
2022/11/05 04:31:01;;;;;;;17.42;9.75;;;;;;;12.47;73.59;100851.58;1741920;82;25969;-62
2022/11/05 04:33:27;;;;;;;19.37;9.90;;;;;;;12.45;73.61;100850.38;1746471;82;27477;-62
2022/11/05 04:35:54;;;;;;;16.57;8.90;;;;;;;12.46;73.81;100852.09;1746442;82;25974;-62
2022/11/05 04:38:22;;;;;;;22.50;9.80;;;;;;;12.47;73.54;100851.58;1746733;80;25632;-61
2022/11/05 04:40:49;;;;;;;24.98;11.10;;;;;;;12.46;73.54;100849.39;1746735;80;25848;-62
2022/11/05 04:43:19;;;;;;;17.57;9.88;;;;;;;12.47;73.75;100843.00;1746801;80;25718;-61
2022/11/05 04:45:45;;;;;;;21.48;9.58;;;;;;;12.44;73.69;100840.58;1746479;82;28502;-62
2022/11/05 04:48:14;;;;;;;21.07;11.25;;;;;;;12.44;73.64;100845.14;1715279;82;25973;-61
2022/11/05 04:50:43;;;;;;;27.62;10.68;;;;;;;12.45;73.74;100842.80;1746451;82;25797;-61
2022/11/05 04:53:11;;;;;;;22.98;10.10;;;;;;;12.44;73.99;100845.14;1746135;82;25930;-61
2022/11/05 04:55:38;;;;;;;18.30;10.00;;;;;;;12.45;73.84;100841.45;1746424;82;27303;-62
2022/11/05 04:58:07;;;;;;;24.32;10.82;;;;;;;12.43;73.49;100845.62;1742480;80;27472;-62
2022/11/05 05:00:35;;;;;;;22.15;10.40;;;;;;;12.41;73.67;100848.13;1738138;82;25777;-62
2022/11/05 05:03:04;;;;;;;18.52;11.28;;;;;;;12.41;73.59;100850.82;1751315;80;25780;-62
2022/11/05 05:05:33;;;;;;;24.05;11.65;;;;;;;12.40;73.58;100847.77;1740627;80;25962;-62
2022/11/05 05:08:06;;;;;;;23.35;11.85;;;;;;;12.40;73.53;100857.21;1729334;82;25492;-62
2022/11/05 05:10:36;;;;;;;23.00;11.83;;;;;;;12.36;73.56;100857.52;1719041;82;27558;-63
2022/11/05 05:13:03;;;;;;;24.23;12.23;;;;;;;12.35;73.46;100854.95;1698205;84;25480;-62
2022/11/05 05:15:30;;;;;;;41.08;12.18;;;;;;;12.33;73.72;100852.89;1677552;84;25729;-62
2022/11/05 05:17:56;;;;;;;22.95;10.58;;;;;;;12.32;73.74;100860.14;1680889;84;26683;-62
2022/11/05 05:23:13;;;;;;;21.05;11.03;;;;;;;12.33;73.83;100863.68;1706191;83;25970;-62
2022/11/05 05:25:39;;;;;;;22.75;10.93;;;;;;;12.34;74.10;100861.34;1701512;83;25780;-62
2022/11/05 05:28:06;;;;;;;21.17;10.88;;;;;;;12.40;74.04;100870.70;1729572;82;25444;-62
2022/11/05 05:30:37;;;;;;;24.47;10.23;;;;;;;12.43;74.18;100873.95;1705999;84;25825;-62
2022/11/05 05:33:04;;;;;;;31.33;11.15;;;;;;;12.48;74.51;100871.69;1703349;83;25793;-62
2022/11/05 05:35:33;;;;;;;24.12;11.08;;;;;;;12.49;74.46;100869.34;1713117;82;27462;-62
2022/11/05 05:37:59;;;;;;;24.82;12.45;;;;;;;12.55;74.12;100878.67;1705128;84;25859;-62
2022/11/05 05:40:26;;;;;;;32.05;14.83;;;;;;;12.61;74.15;100880.80;1705372;84;25720;-62
2022/11/05 05:42:55;;;;;;;24.67;12.85;;;;;;;12.65;74.02;100890.30;1705592;82;26455;-62
2022/11/05 05:45:22;;;;;;;29.70;13.00;;;;;;;12.67;74.04;100895.05;1706264;84;25712;-62
2022/11/05 05:47:48;;;;;;;33.02;12.95;;;;;;;12.71;73.93;100901.00;1705944;83;28451;-62
2022/11/05 05:50:15;;;;;;;34.18;11.38;;;;;;;12.73;73.91;100896.83;1705885;84;26491;-62
2022/11/05 05:52:42;;;;;;;25.02;11.65;;;;;;;12.75;73.71;100902.42;1705897;84;25707;-62
2022/11/05 05:55:11;;;;;;;20.48;10.98;;;;;;;12.79;73.57;100897.58;1705955;84;25931;-62
2022/11/05 05:57:38;;;;;;;27.37;11.30;;;;;;;12.80;73.55;100900.12;1707295;82;25733;-62
2022/11/05 06:00:08;;;;;;;27.00;11.68;;;;;;;12.81;73.33;100906.39;1716044;82;27481;-62
2022/11/05 06:02:36;;;;;;;28.12;11.95;;;;;;;12.81;73.15;100918.53;1687682;84;25757;-62
2022/11/05 06:05:05;;;;;;;23.70;11.75;;;;;;;12.81;73.19;100923.94;1709511;82;25737;-62
2022/11/05 06:07:32;;;;;;;28.62;13.00;;;;;;;12.78;73.27;100928.27;1690792;84;25802;-62
2022/11/05 06:09:58;;;;;;;25.37;12.25;;;;;;;12.76;73.16;100935.17;1708875;83;25749;-62
2022/11/05 06:12:25;;;;;;;27.80;12.30;;;;;;;12.75;73.31;100936.17;1709306;82;28278;-62
2022/11/05 06:14:52;;;;;;;25.80;12.40;;;;;;;12.73;73.32;100936.81;1668261;83;25776;-62
2022/11/05 06:17:18;;;;;;;29.00;12.88;;;;;;;12.77;73.16;100941.41;1708835;83;25795;-62
2022/11/05 06:19:45;;;;;;;29.23;13.50;;;;;;;12.76;73.41;100946.45;1709357;83;25919;-62
2022/11/05 06:22:12;;;;;;;25.82;12.63;;;;;;;12.76;73.58;100958.60;1708831;83;26144;-62
2022/11/05 06:24:39;;;;;;;25.10;12.73;;;;;;;12.79;73.48;100964.55;1690107;84;27400;-62
2022/11/05 06:27:05;;;;;;;23.02;12.60;;;;;;;12.81;73.67;100959.88;1689531;84;26036;-62
2022/11/05 06:29:32;;;;;;;22.45;12.50;;;;;;;12.82;73.73;100962.06;1689957;83;25715;-62
2022/11/05 06:31:59;;;;;;;24.05;12.45;;;;;;;12.87;73.89;100957.57;1693242;83;25815;-62
2022/11/05 06:34:26;;;;;;;28.17;12.47;;;;;;;12.93;73.80;100957.84;1693145;83;25739;-62
2022/11/05 06:36:53;;;;;;;24.02;12.20;;;;;;;12.94;73.82;100958.70;1690057;84;27548;-62
2022/11/05 06:39:19;;;;;;;30.17;12.23;;;;;;;12.98;73.93;100966.37;1710872;83;25664;-62
2022/11/05 06:41:46;;;;;;;22.13;11.20;;;;;;;13.06;73.91;100964.77;1712077;83;25499;-61
2022/11/05 06:44:13;;;;;;;23.15;11.30;;;;;;;13.13;73.68;100957.78;1711874;83;25803;-62
2022/11/05 06:46:39;;;;;;;30.62;12.37;;;;;;;13.20;73.81;100958.87;1713639;83;25849;-62
2022/11/05 06:49:06;;;;;;;30.70;11.97;;;;;;;13.26;73.55;100967.76;1720700;82;27664;-62
2022/11/05 06:51:33;;;;;;;29.75;12.43;;;;;;;13.33;73.39;100968.50;1751412;81;25794;-62
2022/11/05 06:54:00;;;;;;;26.05;11.80;;;;;;;13.39;73.37;100968.80;1752766;81;25700;-62
2022/11/05 06:56:27;;;;;;;27.70;11.68;;;;;;;13.46;73.17;100977.13;1749626;81;25849;-62
2022/11/05 06:58:53;;;;;;;25.77;11.85;;;;;;;13.51;73.03;100974.84;1742421;80;26176;-62
2022/11/05 07:01:22;;;;;;;30.43;13.55;;;;;;;13.56;72.86;100977.93;1738530;80;27397;-62
2022/11/05 07:03:48;;;;;;;24.82;12.55;;;;;;;13.61;72.77;100982.41;1735489;80;26041;-61
2022/11/05 07:06:15;;;;;;;24.98;11.48;;;;;;;13.67;72.67;100984.14;1736715;80;25815;-62
2022/11/05 07:08:42;;;;;;;24.23;12.18;;;;;;;13.74;72.60;100982.04;1729346;81;25811;-62
2022/11/05 07:11:09;;;;;;;32.70;12.80;;;;;;;13.85;72.37;100974.72;1729520;82;25745;-62
2022/11/05 07:13:35;;;;;;;32.38;12.88;;;;;;;13.98;72.10;100982.45;1734084;80;27716;-62
2022/11/05 07:16:02;;;;;;;34.88;12.68;;;;;;;14.08;72.00;100983.20;1726399;82;25719;-62
2022/11/05 07:18:29;;;;;;;27.93;12.55;;;;;;;14.15;71.72;100978.91;1726252;82;25882;-62
2022/11/05 07:20:56;;;;;;;29.45;12.88;;;;;;;14.19;71.55;100984.34;1725205;83;25815;-62
2022/11/05 07:23:24;;;;;;;21.87;11.97;;;;;;;14.21;71.34;100985.53;1723238;80;26396;-62
2022/11/05 07:25:51;;;;;;;28.38;12.00;;;;;;;14.27;71.04;100978.65;1779605;80;27391;-62
2022/11/05 07:28:18;;;;;;;29.00;13.45;;;;;;;14.31;71.16;100974.12;1776307;80;25698;-62
2022/11/05 07:30:45;;;;;;;26.62;12.95;;;;;;;14.35;71.05;100980.07;1747743;80;25956;-62
2022/11/05 07:33:11;;;;;;;25.88;13.08;;;;;;;14.37;70.98;100988.89;1741324;82;25791;-62
2022/11/05 07:35:39;;;;;;;31.70;12.15;;;;;;;14.40;70.74;100994.00;1742172;80;25616;-61
2022/11/05 07:38:05;;;;;;;31.45;12.47;;;;;;;14.47;70.70;100990.17;1741417;82;27490;-61
2022/11/05 07:40:32;;;;;;;29.63;12.30;;;;;;;14.57;70.82;100981.44;1741819;82;25750;-61
2022/11/05 07:43:01;;;;;;;28.77;10.98;;;;;;;14.66;70.99;100983.23;1707236;84;25786;-61
2022/11/05 07:45:30;;;;;;;31.62;11.93;;;;;;;14.70;70.80;100981.09;1714487;82;25785;-62
2022/11/05 07:48:00;;;;;;;32.58;12.33;;;;;;;14.77;70.83;100978.57;1737360;81;25792;-62
2022/11/05 07:50:35;;;;;;;28.52;12.82;;;;;;;14.83;70.73;100977.44;1737008;82;27462;-62
2022/11/05 07:53:08;;;;;;;33.70;13.32;;;;;;;14.94;70.87;100979.02;1718620;82;26113;-62
2022/11/05 07:55:35;;;;;;;26.97;11.80;;;;;;;15.05;70.59;100983.83;1703982;83;26175;-62
2022/11/05 07:58:03;;;;;;;32.05;11.68;;;;;;;15.12;70.39;100978.10;1707060;83;26715;-63
2022/11/05 08:00:33;;;;;;;35.00;12.73;;;;;;;15.16;69.69;100974.91;1716018;83;25978;-63
2022/11/05 08:03:15;;;;;;;29.35;12.10;;;;;;;15.18;69.60;100981.55;1752291;81;27510;-62
2022/11/05 08:05:45;;;;;;;29.45;11.28;;;;;;;15.22;69.77;100982.06;1752022;81;25716;-62
2022/11/05 08:08:18;;;;;;;37.23;19.32;;;;;;;15.24;69.48;100975.47;1754639;81;25810;-61
2022/11/05 08:10:46;;;;;;;25.72;11.75;;;;;;;15.25;69.46;100982.59;1742208;80;25790;-60
2022/11/05 08:13:13;;;;;;;30.48;12.73;;;;;;;15.31;69.01;100986.00;1691366;83;26022;-61
2022/11/05 08:15:42;;;;;;;41.33;12.70;;;;;;;15.36;69.02;100976.55;1754775;81;27520;-61
2022/11/05 08:18:13;;;;;;;28.70;12.58;;;;;;;15.41;68.89;100979.60;1754489;81;26119;-61
2022/11/05 08:20:41;;;;;;;22.95;11.10;;;;;;;15.49;68.49;100972.85;1751225;81;25664;-61
2022/11/05 08:23:08;;;;;;;25.65;11.85;;;;;;;15.55;68.19;100968.16;1754736;81;26530;-61
2022/11/05 08:25:38;;;;;;;26.55;11.83;;;;;;;15.59;67.88;100966.80;1754689;80;25744;-62
2022/11/05 08:28:07;;;;;;;31.23;11.93;;;;;;;15.60;67.80;100970.34;1754566;81;27634;-61
2022/11/05 08:30:35;;;;;;;24.95;11.57;;;;;;;15.61;67.72;100978.33;1754479;81;25771;-62
2022/11/05 08:33:08;;;;;;;28.23;11.00;;;;;;;15.64;67.51;100982.58;1725115;81;25757;-61
2022/11/05 08:35:37;;;;;;;36.05;11.25;;;;;;;15.67;67.59;100971.90;1754780;81;25958;-62
2022/11/05 08:38:06;;;;;;;29.87;11.43;;;;;;;15.70;67.21;100981.91;1754945;80;25787;-62
2022/11/05 08:40:35;;;;;;;28.67;12.03;;;;;;;15.74;67.20;100975.64;1755642;80;27445;-61
2022/11/05 08:43:05;;;;;;;27.42;11.83;;;;;;;15.80;67.05;100979.91;1753170;81;25714;-62
2022/11/05 08:45:35;;;;;;;30.62;11.33;;;;;;;15.95;67.19;100980.14;1754072;80;25800;-62
2022/11/05 08:48:10;;;;;;;26.57;11.53;;;;;;;16.16;66.82;100982.03;1752614;81;25998;-62
2022/11/05 08:50:38;;;;;;;30.15;9.15;;;;;;;16.33;66.21;100976.95;1752175;81;26275;-62
2022/11/05 08:53:06;;;;;;;24.35;10.50;;;;;;;16.43;65.78;100977.64;1753708;80;28437;-63
2022/11/05 08:55:33;;;;;;;25.23;10.08;;;;;;;16.53;64.69;100976.63;1759120;80;25969;-62
2022/11/05 08:58:13;;;;;;;29.92;9.45;;;;;;;16.55;64.24;100976.78;1755217;80;25822;-62
2022/11/05 09:00:46;;;;;;;25.62;10.63;;;;;;;16.50;64.27;100969.67;1740442;81;26470;-62
2022/11/05 09:03:13;;;;;;;22.07;9.85;;;;;;;16.49;63.66;100968.50;1733933;80;25706;-62
2022/11/05 09:05:41;;;;;;;24.32;11.12;;;;;;;16.41;63.67;100972.88;1738358;81;27529;-62
2022/11/05 09:08:16;;;;;;;24.43;10.50;;;;;;;16.31;63.71;100975.44;1736452;81;25816;-62
2022/11/05 09:10:44;;;;;;;33.10;10.40;;;;;;;16.24;63.44;100973.90;1737222;81;25727;-62
2022/11/05 09:13:11;;;;;;;31.70;10.10;;;;;;;16.24;63.59;100977.97;1738563;81;25824;-61
2022/11/05 09:15:39;;;;;;;17.85;8.55;;;;;;;16.26;63.89;100975.45;1749027;80;25815;-61
2022/11/05 09:18:09;;;;;;;25.60;8.13;;;;;;;16.25;63.47;100990.03;1751473;80;28233;-61
2022/11/05 09:20:38;;;;;;;21.50;8.05;;;;;;;16.20;63.36;100992.39;1713042;82;26481;-61
2022/11/05 09:23:07;;;;;;;18.98;9.23;;;;;;;16.15;63.32;100999.33;1736090;81;26418;-61
2022/11/05 09:25:34;;;;;;;26.55;9.30;;;;;;;16.10;63.35;100997.98;1739779;81;25942;-61
2022/11/05 09:28:15;;;;;;;30.15;10.68;;;;;;;16.10;63.21;101001.19;1752644;80;26183;-61
2022/11/05 09:30:51;;;;;;;16.85;8.43;;;;;;;16.14;63.34;100993.59;1739354;81;27476;-61
2022/11/05 09:33:24;;;;;;;29.48;9.50;;;;;;;16.16;63.08;100993.76;1740506;81;25716;-61
2022/11/05 09:35:52;;;;;;;22.07;8.00;;;;;;;16.16;63.11;100997.83;1739457;81;25790;-61
2022/11/05 09:38:19;;;;;;;27.25;9.03;;;;;;;16.17;62.91;101006.80;1734345;81;26003;-61
2022/11/05 09:40:59;;;;;;;20.35;8.68;;;;;;;16.19;62.89;101004.25;1750398;80;25789;-61
2022/11/05 09:43:34;;;;;;;25.20;8.80;;;;;;;16.14;62.79;101003.92;1713786;82;27482;-61
2022/11/05 09:46:06;;;;;;;21.52;8.55;;;;;;;16.14;63.03;101001.21;1678593;83;25808;-61
2022/11/05 09:48:35;;;;;;;27.17;9.80;;;;;;;16.20;62.93;100999.17;1719148;81;25950;-61
2022/11/05 09:51:05;;;;;;;23.07;8.75;;;;;;;16.26;62.10;101001.23;1721220;82;26634;-61
2022/11/05 09:53:37;;;;;;;27.50;9.03;;;;;;;16.25;62.24;100995.95;1682753;83;25874;-61
2022/11/05 09:56:19;;;;;;;20.85;8.13;;;;;;;16.25;61.92;100998.67;1713008;82;28191;-62
2022/11/05 09:58:54;;;;;;;52.23;8.78;;;;;;;16.24;61.97;101003.27;1745377;80;25845;-62
2022/11/05 10:01:31;;;;;;;38.90;8.10;;;;;;;16.24;61.52;101003.27;1749323;80;25802;-62
2022/11/05 10:04:03;;;;;;;24.37;7.60;;;;;;;16.27;61.29;101002.91;1747817;80;26451;-61
2022/11/05 10:06:31;;;;;;;28.65;8.03;;;;;;;16.31;60.96;101008.02;1725951;82;25520;-61
2022/11/05 10:09:06;;;;;;;23.55;7.83;;;;;;;16.26;60.94;101005.80;1764255;80;27511;-61
2022/11/05 10:11:46;;;;;;;23.02;8.13;;;;;;;16.25;60.91;101010.88;1743549;82;25880;-61
2022/11/05 10:14:37;;;;;;;21.02;6.97;;;;;;;16.31;60.88;101012.95;1750595;80;25707;-61
2022/11/05 10:17:21;;;;;;;34.83;7.20;;;;;;;16.40;60.72;101013.30;1701812;82;26456;-61
2022/11/05 10:19:59;;;;;;;16.20;6.72;;;;;;;16.49;60.26;101018.20;1746011;81;25911;-61
2022/11/05 10:22:26;;;;;;;24.63;7.15;;;;;;;16.58;59.92;101010.40;1747052;80;27466;-61
2022/11/05 10:24:54;;;;;;;19.20;7.08;;;;;;;16.88;59.86;101009.86;1759052;80;26190;-61
2022/11/05 10:27:35;;;;;;;15.08;7.25;;;;;;;17.61;58.29;101020.23;1748464;80;25480;-61
2022/11/05 10:30:03;;;;;;;23.55;6.60;;;;;;;17.91;57.03;101017.71;1763773;80;26156;-61
2022/11/05 10:32:34;;;;;;;18.37;6.05;;;;;;;18.29;56.41;101019.70;1756302;80;26321;-61
2022/11/05 10:35:06;;;;;;;21.17;6.33;;;;;;;18.73;54.17;101022.27;1743936;80;27474;-61
2022/11/05 10:37:34;;;;;;;21.23;6.72;;;;;;;18.94;54.63;101013.41;1741739;80;25834;-62
2022/11/05 10:40:01;;;;;;;16.77;6.45;;;;;;;19.08;52.93;101009.84;1743382;80;25841;-61
2022/11/05 10:43:03;;;;;;;20.05;6.78;;;;;;;19.02;52.47;101013.32;1745430;80;25791;-61
2022/11/05 10:46:28;;;;;;;19.20;9.25;;;;;;;18.93;53.09;101008.45;1743958;82;25801;-61
2022/11/05 10:48:58;;;;;;;;;;;;;;;18.92;52.64;101005.89;1764266;80;27862;-62
2022/11/05 10:51:26;;;;;;;25.80;6.40;;;;;;;18.77;52.87;101011.31;1743115;81;25957;-61
2022/11/05 10:53:56;;;;;;;22.58;6.53;;;;;;;18.73;53.36;101008.64;1756519;80;25686;-61
2022/11/05 10:56:34;;;;;;;16.90;6.20;;;;;;;18.76;52.98;101016.42;1749285;80;25719;-61
2022/11/05 10:59:03;;;;;;;18.57;6.50;;;;;;;18.77;52.60;101009.45;1758626;80;25975;-61
2022/11/05 11:01:31;;;;;;;15.80;6.30;;;;;;;18.76;53.21;101014.56;1750514;80;28130;-61
2022/11/05 11:04:10;;;;;;;25.55;6.80;;;;;;;18.80;52.90;101010.95;1763390;80;25819;-61
2022/11/05 11:06:37;;;;;;;20.40;6.70;;;;;;;18.80;53.11;101007.36;1708787;82;25715;-61
2022/11/05 11:09:16;;;;;;;17.15;7.12;;;;;;;18.82;52.90;101007.53;1746452;82;25796;-61
2022/11/05 11:11:44;;;;;;;17.25;6.37;;;;;;;18.80;52.99;101004.14;1727018;80;25683;-61
2022/11/05 11:14:18;;;;;;;21.73;7.08;;;;;;;18.79;52.48;101006.53;1746763;82;28039;-61
2022/11/05 11:16:52;;;;;;;18.98;6.55;;;;;;;18.72;52.35;101010.50;1748397;80;25499;-61
2022/11/05 11:19:33;;;;;;;;;;;;;;;18.61;51.96;101011.80;1755890;80;25814;-62
2022/11/05 11:22:09;;;;;;;21.95;6.35;;;;;;;18.40;52.46;101015.70;1722291;82;25785;-62
2022/11/05 11:24:45;;;;;;;17.62;6.75;;;;;;;18.26;52.73;101015.97;1749477;80;25860;-61
2022/11/05 11:27:26;;;;;;;18.30;6.75;;;;;;;18.11;52.88;101019.98;1758875;80;27473;-62
2022/11/05 11:30:00;;;;;;;15.18;6.53;;;;;;;17.96;53.20;101028.09;1753520;80;25425;-61
2022/11/05 11:32:34;;;;;;;26.33;6.87;;;;;;;17.84;53.51;101026.23;1769146;80;26499;-62
2022/11/05 11:35:03;;;;;;;26.52;6.95;;;;;;;17.75;53.69;101032.23;1741581;80;25963;-62
2022/11/05 11:37:40;;;;;;;25.72;8.10;;;;;;;17.63;53.82;101026.84;1742628;82;25725;-62
2022/11/05 11:40:22;;;;;;;26.70;7.37;;;;;;;17.49;54.22;101021.62;1742075;80;27475;-62
2022/11/05 11:42:56;;;;;;;16.35;6.78;;;;;;;17.34;54.28;101031.05;1743053;80;33950;-61
2022/11/05 11:45:46;;;;;;;18.87;6.50;;;;;;;17.19;54.58;101040.43;1740892;80;25784;-60
2022/11/05 11:48:21;;;;;;;28.73;7.15;;;;;;;17.08;54.92;101033.98;1751322;80;25956;-61
2022/11/05 11:50:49;;;;;;;30.37;8.25;;;;;;;16.95;55.28;101029.92;1743239;81;25685;-61
2022/11/05 11:53:26;;;;;;;22.87;7.87;;;;;;;16.92;55.32;101028.89;1746263;80;28344;-61
2022/11/05 11:56:18;;;;;;;27.58;8.03;;;;;;;16.93;55.26;101037.88;1743192;82;27114;-61
2022/11/05 11:58:51;;;;;;;14.73;6.55;;;;;;;16.90;55.55;101035.00;1755896;80;25803;-61
2022/11/05 12:01:59;;;;;;;18.25;7.33;;;;;;;16.89;55.41;101038.73;1740160;81;25748;-61
2022/11/05 12:04:31;;;;;;;18.75;7.65;;;;;;;16.86;55.50;101034.50;1746567;80;26159;-61
2022/11/05 12:07:19;;;;;;;23.65;7.55;;;;;;;16.86;55.52;101041.29;1738348;81;28597;-61
2022/11/05 12:10:00;;;;;;;15.75;7.33;;;;;;;16.90;55.42;101038.55;1737771;81;25966;-61
2022/11/05 12:12:53;;;;;;;21.73;8.35;;;;;;;17.00;55.32;101036.20;1744574;81;25711;-61
2022/11/05 12:15:42;;;;;;;16.77;7.92;;;;;;;17.09;54.85;101042.48;1746497;80;25965;-61
2022/11/05 12:18:45;;;;;;;16.37;6.47;;;;;;;17.13;54.61;101038.38;1739073;80;25703;-61
2022/11/05 12:21:43;;;;;;;34.40;6.72;;;;;;;17.15;54.55;101055.38;1742299;81;27529;-61